sensor_id;sensor_type;location;lat;lon;timestamp;pressure;altitude;pressure_sealevel;temperature;humidity
56721;BME280;53183;47.412;18.884;2024-02-26T10:27:29;98430.03;;;14.96;100.00
56721;BME280;53183;47.412;18.884;2024-02-26T10:29:57;98425.63;;;15.25;100.00
56721;BME280;53183;47.412;18.884;2024-02-26T10:32:24;98428.72;;;15.50;100.00
56721;BME280;53183;47.412;18.884;2024-02-26T10:34:56;98424.25;;;15.41;100.00
56721;BME280;53183;47.412;18.884;2024-02-26T10:37:27;98427.19;;;15.38;100.00
56721;BME280;53183;47.412;18.884;2024-02-26T10:39:56;98421.97;;;15.27;100.00
56721;BME280;53183;47.412;18.884;2024-02-26T10:42:25;98419.59;;;15.43;98.42
56721;BME280;53183;47.412;18.884;2024-02-26T10:44:54;98417.22;;;15.20;100.00
56721;BME280;53183;47.412;18.884;2024-02-26T10:47:22;98418.09;;;14.90;100.00
56721;BME280;53183;47.412;18.884;2024-02-26T10:49:50;98417.59;;;14.56;100.00
56721;BME280;53183;47.412;18.884;2024-02-26T10:52:19;98407.69;;;14.58;100.00
56721;BME280;53183;47.412;18.884;2024-02-26T10:54:47;98400.22;;;14.92;100.00
56721;BME280;53183;47.412;18.884;2024-02-26T10:57:18;98406.00;;;15.07;100.00
56721;BME280;53183;47.412;18.884;2024-02-26T10:59:48;98407.94;;;15.05;97.89
56721;BME280;53183;47.412;18.884;2024-02-26T11:02:17;98407.13;;;15.24;97.70
56721;BME280;53183;47.412;18.884;2024-02-26T11:04:47;98404.88;;;15.39;96.01
56721;BME280;53183;47.412;18.884;2024-02-26T11:07:17;98407.28;;;15.52;95.54
56721;BME280;53183;47.412;18.884;2024-02-26T11:09:46;98405.88;;;15.38;93.60
56721;BME280;53183;47.412;18.884;2024-02-26T11:12:20;98403.38;;;15.75;93.66
56721;BME280;53183;47.412;18.884;2024-02-26T11:14:51;98411.59;;;15.62;95.03
56721;BME280;53183;47.412;18.884;2024-02-26T11:17:22;98413.88;;;15.96;93.44
56721;BME280;53183;47.412;18.884;2024-02-26T11:19:55;98407.00;;;15.84;93.48
56721;BME280;53183;47.412;18.884;2024-02-26T11:22:25;98406.56;;;15.98;92.51
56721;BME280;53183;47.412;18.884;2024-02-26T11:24:56;98413.59;;;15.89;93.34
56721;BME280;53183;47.412;18.884;2024-02-26T11:27:27;98416.25;;;15.99;92.15
56721;BME280;53183;47.412;18.884;2024-02-26T11:29:58;98410.72;;;16.20;93.07
56721;BME280;53183;47.412;18.884;2024-02-26T11:32:29;98411.78;;;15.80;94.70
56721;BME280;53183;47.412;18.884;2024-02-26T11:34:58;98414.28;;;15.82;93.54
56721;BME280;53183;47.412;18.884;2024-02-26T11:37:25;98419.62;;;15.82;95.65
56721;BME280;53183;47.412;18.884;2024-02-26T11:39:53;98420.88;;;15.58;96.05
56721;BME280;53183;47.412;18.884;2024-02-26T11:42:24;98421.84;;;15.28;99.48
56721;BME280;53183;47.412;18.884;2024-02-26T11:44:55;98422.13;;;15.44;99.22
56721;BME280;53183;47.412;18.884;2024-02-26T11:47:34;98423.25;;;15.61;97.02
56721;BME280;53183;47.412;18.884;2024-02-26T11:50:35;98415.25;;;15.32;98.64
56721;BME280;53183;47.412;18.884;2024-02-26T11:53:33;98411.34;;;15.17;98.65
56721;BME280;53183;47.412;18.884;2024-02-26T11:59:09;98416.72;;;14.96;100.00
56721;BME280;53183;47.412;18.884;2024-02-26T12:01:44;98411.72;;;15.12;98.71
56721;BME280;53183;47.412;18.884;2024-02-26T12:04:17;98411.31;;;15.07;100.00
56721;BME280;53183;47.412;18.884;2024-02-26T12:06:55;98404.69;;;14.92;100.00
56721;BME280;53183;47.412;18.884;2024-02-26T12:09:31;98405.09;;;14.97;99.04
56721;BME280;53183;47.412;18.884;2024-02-26T12:12:05;98402.03;;;14.92;100.00
56721;BME280;53183;47.412;18.884;2024-02-26T12:14:56;98403.03;;;15.00;100.00
56721;BME280;53183;47.412;18.884;2024-02-26T12:17:25;98405.97;;;14.97;100.00
56721;BME280;53183;47.412;18.884;2024-02-26T12:19:53;98409.34;;;15.19;99.56
56721;BME280;53183;47.412;18.884;2024-02-26T12:22:22;98407.66;;;15.08;97.99
56721;BME280;53183;47.412;18.884;2024-02-26T12:24:58;98402.91;;;15.21;96.10
56721;BME280;53183;47.412;18.884;2024-02-26T12:27:34;98399.69;;;15.18;96.95
56721;BME280;53183;47.412;18.884;2024-02-26T12:30:05;98393.37;;;15.19;95.76
56721;BME280;53183;47.412;18.884;2024-02-26T12:32:44;98393.41;;;15.29;94.46
56721;BME280;53183;47.412;18.884;2024-02-26T12:35:15;98382.47;;;15.51;94.54
56721;BME280;53183;47.412;18.884;2024-02-26T12:37:52;98395.63;;;15.91;94.79
56721;BME280;53183;47.412;18.884;2024-02-26T12:40:21;98388.34;;;15.93;91.97
56721;BME280;53183;47.412;18.884;2024-02-26T12:43:01;98387.06;;;16.07;92.76
56721;BME280;53183;47.412;18.884;2024-02-26T12:45:33;98391.66;;;16.05;92.11
56721;BME280;53183;47.412;18.884;2024-02-26T12:48:01;98388.34;;;16.03;92.76
56721;BME280;53183;47.412;18.884;2024-02-26T12:50:30;98391.81;;;16.13;92.75
56721;BME280;53183;47.412;18.884;2024-02-26T12:53:01;98393.97;;;16.37;90.76
56721;BME280;53183;47.412;18.884;2024-02-26T12:55:29;98388.09;;;16.34;91.18
56721;BME280;53183;47.412;18.884;2024-02-26T12:57:59;98394.19;;;16.16;92.26
56721;BME280;53183;47.412;18.884;2024-02-26T13:00:49;98387.28;;;16.24;89.60
56721;BME280;53183;47.412;18.884;2024-02-26T13:03:17;98400.03;;;16.30;90.06
56721;BME280;53183;47.412;18.884;2024-02-26T13:05:46;98392.72;;;16.32;89.40
56721;BME280;53183;47.412;18.884;2024-02-26T13:08:20;98396.91;;;16.34;88.88
56721;BME280;53183;47.412;18.884;2024-02-26T13:10:48;98393.63;;;16.50;88.23
56721;BME280;53183;47.412;18.884;2024-02-26T13:13:18;98394.06;;;16.55;87.18
56721;BME280;53183;47.412;18.884;2024-02-26T13:15:46;98396.84;;;16.54;86.29
56721;BME280;53183;47.412;18.884;2024-02-26T13:18:15;98393.75;;;16.58;85.18
56721;BME280;53183;47.412;18.884;2024-02-26T13:20:43;98398.72;;;16.81;84.77
56721;BME280;53183;47.412;18.884;2024-02-26T13:23:12;98391.66;;;16.90;84.11
56721;BME280;53183;47.412;18.884;2024-02-26T13:25:39;98393.50;;;17.07;84.43
56721;BME280;53183;47.412;18.884;2024-02-26T13:28:18;98388.28;;;16.87;84.00
56721;BME280;53183;47.412;18.884;2024-02-26T13:30:51;98385.09;;;16.74;82.62
56721;BME280;53183;47.412;18.884;2024-02-26T13:33:20;98383.44;;;16.46;84.11
56721;BME280;53183;47.412;18.884;2024-02-26T13:35:49;98386.09;;;16.46;84.69
56721;BME280;53183;47.412;18.884;2024-02-26T13:38:16;98386.00;;;16.28;84.93
56721;BME280;53183;47.412;18.884;2024-02-26T13:40:45;98377.72;;;16.31;87.30
56721;BME280;53183;47.412;18.884;2024-02-26T13:43:13;98384.81;;;16.12;85.72
56721;BME280;53183;47.412;18.884;2024-02-26T13:45:40;98387.81;;;15.90;86.85
56721;BME280;53183;47.412;18.884;2024-02-26T13:48:10;98384.72;;;15.85;88.17
56721;BME280;53183;47.412;18.884;2024-02-26T13:50:39;98383.16;;;15.92;89.02
56721;BME280;53183;47.412;18.884;2024-02-26T13:53:08;98375.09;;;16.11;87.18
56721;BME280;53183;47.412;18.884;2024-02-26T13:55:37;98374.47;;;16.37;84.04
56721;BME280;53183;47.412;18.884;2024-02-26T13:58:11;98382.56;;;16.45;83.83
56721;BME280;53183;47.412;18.884;2024-02-26T14:00:40;98376.47;;;16.25;84.13
56721;BME280;53183;47.412;18.884;2024-02-26T14:03:10;98380.59;;;16.47;83.61
56721;BME280;53183;47.412;18.884;2024-02-26T14:05:37;98372.50;;;16.39;84.25
56721;BME280;53183;47.412;18.884;2024-02-26T14:08:09;98371.75;;;16.09;81.93
56721;BME280;53183;47.412;18.884;2024-02-26T14:10:36;98360.56;;;16.06;82.67
56721;BME280;53183;47.412;18.884;2024-02-26T14:13:04;98367.44;;;15.89;82.33
56721;BME280;53183;47.412;18.884;2024-02-26T14:15:33;98367.91;;;15.75;82.75
56721;BME280;53183;47.412;18.884;2024-02-26T14:18:02;98366.78;;;15.48;82.43
56721;BME280;53183;47.412;18.884;2024-02-26T14:20:31;98371.28;;;15.38;83.18
56721;BME280;53183;47.412;18.884;2024-02-26T14:22:58;98367.06;;;15.25;84.38
56721;BME280;53183;47.412;18.884;2024-02-26T14:25:27;98371.50;;;14.96;85.14
56721;BME280;53183;47.412;18.884;2024-02-26T14:27:57;98375.44;;;14.92;85.91
56721;BME280;53183;47.412;18.884;2024-02-26T14:30:26;98366.41;;;14.73;87.47
56721;BME280;53183;47.412;18.884;2024-02-26T14:32:54;98376.87;;;14.56;87.57
56721;BME280;53183;47.412;18.884;2024-02-26T14:35:24;98373.97;;;14.38;88.88
56721;BME280;53183;47.412;18.884;2024-02-26T14:37:52;98372.44;;;14.35;89.38
56721;BME280;53183;47.412;18.884;2024-02-26T14:40:19;98379.47;;;14.15;89.88
56721;BME280;53183;47.412;18.884;2024-02-26T14:42:46;98385.00;;;14.02;90.72
56721;BME280;53183;47.412;18.884;2024-02-26T14:45:14;98391.66;;;13.97;91.96
56721;BME280;53183;47.412;18.884;2024-02-26T14:47:44;98396.56;;;14.01;92.94
56721;BME280;53183;47.412;18.884;2024-02-26T14:50:13;98387.91;;;13.99;93.19
56721;BME280;53183;47.412;18.884;2024-02-26T14:52:41;98375.94;;;14.05;92.88
56721;BME280;53183;47.412;18.884;2024-02-26T14:55:10;98378.19;;;14.10;92.52
56721;BME280;53183;47.412;18.884;2024-02-26T14:57:37;98383.44;;;14.00;92.88
56721;BME280;53183;47.412;18.884;2024-02-26T15:00:07;98383.28;;;14.01;92.76
56721;BME280;53183;47.412;18.884;2024-02-26T15:02:37;98384.78;;;13.94;93.76
56721;BME280;53183;47.412;18.884;2024-02-26T15:05:04;98390.44;;;13.80;96.37
56721;BME280;53183;47.412;18.884;2024-02-26T15:07:32;98389.97;;;13.75;97.98
56721;BME280;53183;47.412;18.884;2024-02-26T15:09:59;98384.34;;;13.68;99.65
56721;BME280;53183;47.412;18.884;2024-02-26T15:15:23;98388.41;;;13.51;100.00
56721;BME280;53183;47.412;18.884;2024-02-26T15:17:51;98386.84;;;13.28;100.00
56721;BME280;53183;47.412;18.884;2024-02-26T15:20:18;98391.94;;;13.08;100.00
56721;BME280;53183;47.412;18.884;2024-02-26T15:22:45;98387.97;;;13.03;100.00
56721;BME280;53183;47.412;18.884;2024-02-26T15:25:14;98391.84;;;12.99;100.00
56721;BME280;53183;47.412;18.884;2024-02-26T15:27:42;98396.69;;;12.94;100.00
56721;BME280;53183;47.412;18.884;2024-02-26T15:30:10;98399.94;;;12.86;100.00
56721;BME280;53183;47.412;18.884;2024-02-26T15:32:37;98397.53;;;12.83;100.00
56721;BME280;53183;47.412;18.884;2024-02-26T15:35:05;98401.66;;;12.76;100.00
56721;BME280;53183;47.412;18.884;2024-02-26T15:37:34;98399.03;;;12.64;100.00
56721;BME280;53183;47.412;18.884;2024-02-26T15:40:04;98400.34;;;12.59;100.00
56721;BME280;53183;47.412;18.884;2024-02-26T15:42:34;98418.91;;;12.48;100.00
56721;BME280;53183;47.412;18.884;2024-02-26T15:45:02;98412.28;;;12.42;100.00
56721;BME280;53183;47.412;18.884;2024-02-26T15:47:29;98410.94;;;12.36;100.00
56721;BME280;53183;47.412;18.884;2024-02-26T15:49:57;98412.53;;;12.28;100.00
56721;BME280;53183;47.412;18.884;2024-02-26T15:52:24;98404.44;;;12.18;100.00
56721;BME280;53183;47.412;18.884;2024-02-26T15:54:56;98412.03;;;12.11;100.00
56721;BME280;53183;47.412;18.884;2024-02-26T15:57:23;98415.50;;;12.12;100.00
56721;BME280;53183;47.412;18.884;2024-02-26T15:59:50;98417.78;;;12.05;100.00
56721;BME280;53183;47.412;18.884;2024-02-26T16:02:19;98422.13;;;11.95;100.00
56721;BME280;53183;47.412;18.884;2024-02-26T16:04:50;98419.19;;;11.87;100.00
56721;BME280;53183;47.412;18.884;2024-02-26T16:07:25;98425.75;;;11.81;100.00
56721;BME280;53183;47.412;18.884;2024-02-26T16:09:58;98428.91;;;11.75;100.00
56721;BME280;53183;47.412;18.884;2024-02-26T16:12:36;98430.78;;;11.62;100.00
56721;BME280;53183;47.412;18.884;2024-02-26T16:15:14;98431.91;;;11.46;100.00
56721;BME280;53183;47.412;18.884;2024-02-26T16:17:44;98437.38;;;11.32;100.00
56721;BME280;53183;47.412;18.884;2024-02-26T16:20:19;98445.47;;;11.18;100.00
56721;BME280;53183;47.412;18.884;2024-02-26T16:22:47;98444.66;;;11.04;100.00
56721;BME280;53183;47.412;18.884;2024-02-26T16:25:16;98446.28;;;10.94;100.00
56721;BME280;53183;47.412;18.884;2024-02-26T16:27:46;98448.88;;;10.83;100.00
56721;BME280;53183;47.412;18.884;2024-02-26T16:30:13;98445.28;;;10.71;100.00
56721;BME280;53183;47.412;18.884;2024-02-26T16:32:40;98456.63;;;10.61;100.00
56721;BME280;53183;47.412;18.884;2024-02-26T16:35:08;98455.69;;;10.49;100.00
56721;BME280;53183;47.412;18.884;2024-02-26T16:37:37;98462.47;;;10.40;100.00
56721;BME280;53183;47.412;18.884;2024-02-26T16:40:05;98463.19;;;10.29;100.00
56721;BME280;53183;47.412;18.884;2024-02-26T16:42:34;98459.38;;;10.21;100.00
56721;BME280;53183;47.412;18.884;2024-02-26T16:45:02;98463.47;;;10.12;100.00
56721;BME280;53183;47.412;18.884;2024-02-26T16:47:31;98462.00;;;10.08;100.00
56721;BME280;53183;47.412;18.884;2024-02-26T16:49:59;98466.66;;;10.04;100.00
56721;BME280;53183;47.412;18.884;2024-02-26T16:52:26;98465.19;;;10.00;100.00
56721;BME280;53183;47.412;18.884;2024-02-26T16:54:55;98465.59;;;9.94;100.00
56721;BME280;53183;47.412;18.884;2024-02-26T16:57:23;98469.28;;;9.92;100.00
56721;BME280;53183;47.412;18.884;2024-02-26T16:59:50;98469.56;;;9.87;100.00
56721;BME280;53183;47.412;18.884;2024-02-26T17:02:17;98462.94;;;9.81;100.00
56721;BME280;53183;47.412;18.884;2024-02-26T17:04:45;98468.81;;;9.72;100.00
56721;BME280;53183;47.412;18.884;2024-02-26T17:07:12;98468.37;;;9.66;100.00
56721;BME280;53183;47.412;18.884;2024-02-26T17:09:40;98476.69;;;9.59;100.00
56721;BME280;53183;47.412;18.884;2024-02-26T17:12:08;98478.81;;;9.54;100.00
56721;BME280;53183;47.412;18.884;2024-02-26T17:14:36;98480.75;;;9.51;100.00
56721;BME280;53183;47.412;18.884;2024-02-26T17:17:04;98484.56;;;9.47;100.00
56721;BME280;53183;47.412;18.884;2024-02-26T17:19:34;98484.87;;;9.42;100.00
56721;BME280;53183;47.412;18.884;2024-02-26T17:22:21;98487.78;;;9.37;100.00
56721;BME280;53183;47.412;18.884;2024-02-26T17:25:01;98492.87;;;9.40;100.00
56721;BME280;53183;47.412;18.884;2024-02-26T17:27:28;98493.38;;;9.33;100.00
56721;BME280;53183;47.412;18.884;2024-02-26T17:29:55;98496.19;;;9.30;100.00
56721;BME280;53183;47.412;18.884;2024-02-26T17:32:28;98493.03;;;9.25;100.00
56721;BME280;53183;47.412;18.884;2024-02-26T17:35:01;98500.56;;;9.16;100.00
56721;BME280;53183;47.412;18.884;2024-02-26T17:37:30;98504.16;;;9.15;100.00
56721;BME280;53183;47.412;18.884;2024-02-26T17:39:58;98511.75;;;9.20;100.00
56721;BME280;53183;47.412;18.884;2024-02-26T17:42:28;98513.91;;;9.28;100.00
56721;BME280;53183;47.412;18.884;2024-02-26T17:44:55;98507.34;;;9.21;100.00
56721;BME280;53183;47.412;18.884;2024-02-26T17:47:22;98509.63;;;9.12;100.00
56721;BME280;53183;47.412;18.884;2024-02-26T17:49:50;98508.88;;;9.10;100.00
56721;BME280;53183;47.412;18.884;2024-02-26T17:52:20;98520.75;;;9.03;100.00
56721;BME280;53183;47.412;18.884;2024-02-26T17:54:47;98519.25;;;8.99;100.00
56721;BME280;53183;47.412;18.884;2024-02-26T17:57:16;98523.25;;;9.05;100.00
56721;BME280;53183;47.412;18.884;2024-02-26T17:59:44;98524.31;;;9.02;100.00
56721;BME280;53183;47.412;18.884;2024-02-26T18:02:12;98528.06;;;8.98;100.00
56721;BME280;53183;47.412;18.884;2024-02-26T18:04:39;98526.50;;;8.96;100.00
56721;BME280;53183;47.412;18.884;2024-02-26T18:07:06;98527.53;;;8.93;100.00
56721;BME280;53183;47.412;18.884;2024-02-26T18:09:37;98530.34;;;8.90;100.00
56721;BME280;53183;47.412;18.884;2024-02-26T18:12:06;98527.56;;;8.79;100.00
56721;BME280;53183;47.412;18.884;2024-02-26T18:14:33;98529.72;;;8.72;100.00
56721;BME280;53183;47.412;18.884;2024-02-26T18:17:01;98532.53;;;8.69;100.00
56721;BME280;53183;47.412;18.884;2024-02-26T18:19:29;98528.50;;;8.63;100.00
56721;BME280;53183;47.412;18.884;2024-02-26T18:21:57;98532.91;;;8.63;100.00
56721;BME280;53183;47.412;18.884;2024-02-26T18:24:26;98530.94;;;8.66;100.00
56721;BME280;53183;47.412;18.884;2024-02-26T18:26:55;98532.63;;;8.67;100.00
56721;BME280;53183;47.412;18.884;2024-02-26T18:29:23;98532.25;;;8.74;100.00
56721;BME280;53183;47.412;18.884;2024-02-26T18:31:51;98530.37;;;8.76;100.00
56721;BME280;53183;47.412;18.884;2024-02-26T18:34:18;98529.13;;;8.81;100.00
56721;BME280;53183;47.412;18.884;2024-02-26T18:36:46;98536.66;;;8.87;100.00
56721;BME280;53183;47.412;18.884;2024-02-26T18:39:14;98544.28;;;8.92;100.00
56721;BME280;53183;47.412;18.884;2024-02-26T18:41:42;98540.53;;;8.96;100.00
56721;BME280;53183;47.412;18.884;2024-02-26T18:44:10;98541.16;;;9.00;100.00
56721;BME280;53183;47.412;18.884;2024-02-26T18:46:44;98540.97;;;9.03;100.00
56721;BME280;53183;47.412;18.884;2024-02-26T18:49:12;98537.87;;;8.96;100.00
56721;BME280;53183;47.412;18.884;2024-02-26T18:51:40;98535.63;;;8.90;100.00
56721;BME280;53183;47.412;18.884;2024-02-26T18:54:08;98540.53;;;8.82;100.00
56721;BME280;53183;47.412;18.884;2024-02-26T18:56:36;98546.25;;;8.74;100.00
56721;BME280;53183;47.412;18.884;2024-02-26T18:59:04;98543.44;;;8.63;100.00
56721;BME280;53183;47.412;18.884;2024-02-26T19:01:31;98549.09;;;8.57;100.00
56721;BME280;53183;47.412;18.884;2024-02-26T19:04:04;98546.94;;;8.49;100.00
56721;BME280;53183;47.412;18.884;2024-02-26T19:06:31;98554.53;;;8.39;100.00
56721;BME280;53183;47.412;18.884;2024-02-26T19:09:13;98545.16;;;8.34;100.00
56721;BME280;53183;47.412;18.884;2024-02-26T19:11:46;98552.59;;;8.27;100.00
56721;BME280;53183;47.412;18.884;2024-02-26T19:14:14;98552.94;;;8.21;100.00
56721;BME280;53183;47.412;18.884;2024-02-26T19:16:42;98556.59;;;8.18;100.00
56721;BME280;53183;47.412;18.884;2024-02-26T19:19:10;98555.19;;;8.13;100.00
56721;BME280;53183;47.412;18.884;2024-02-26T19:21:37;98560.53;;;8.11;100.00
56721;BME280;53183;47.412;18.884;2024-02-26T19:24:06;98569.44;;;8.09;100.00
56721;BME280;53183;47.412;18.884;2024-02-26T19:26:33;98567.94;;;8.05;100.00
56721;BME280;53183;47.412;18.884;2024-02-26T19:29:01;98573.47;;;8.00;100.00
56721;BME280;53183;47.412;18.884;2024-02-26T19:31:34;98577.13;;;7.97;100.00
56721;BME280;53183;47.412;18.884;2024-02-26T19:34:04;98585.25;;;7.93;100.00
56721;BME280;53183;47.412;18.884;2024-02-26T19:36:36;98585.09;;;7.96;100.00
56721;BME280;53183;47.412;18.884;2024-02-26T19:39:08;98587.91;;;7.93;100.00
56721;BME280;53183;47.412;18.884;2024-02-26T19:41:35;98579.44;;;7.88;100.00
56721;BME280;53183;47.412;18.884;2024-02-26T19:44:02;98580.72;;;7.81;100.00
56721;BME280;53183;47.412;18.884;2024-02-26T19:46:29;98580.12;;;7.75;100.00
56721;BME280;53183;47.412;18.884;2024-02-26T19:48:56;98577.69;;;7.72;100.00
56721;BME280;53183;47.412;18.884;2024-02-26T19:51:25;98584.22;;;7.65;100.00
56721;BME280;53183;47.412;18.884;2024-02-26T19:53:52;98583.53;;;7.62;100.00
56721;BME280;53183;47.412;18.884;2024-02-26T19:56:21;98585.69;;;7.55;100.00
56721;BME280;53183;47.412;18.884;2024-02-26T19:58:48;98593.06;;;7.48;100.00
56721;BME280;53183;47.412;18.884;2024-02-26T20:01:15;98592.13;;;7.49;100.00
56721;BME280;53183;47.412;18.884;2024-02-26T20:03:43;98595.69;;;7.64;100.00
56721;BME280;53183;47.412;18.884;2024-02-26T20:06:17;98597.03;;;7.71;100.00
56721;BME280;53183;47.412;18.884;2024-02-26T20:08:45;98599.59;;;7.57;100.00
56721;BME280;53183;47.412;18.884;2024-02-26T20:11:16;98599.16;;;7.65;100.00
56721;BME280;53183;47.412;18.884;2024-02-26T20:13:44;98605.91;;;7.85;100.00
56721;BME280;53183;47.412;18.884;2024-02-26T20:16:12;98606.37;;;7.77;100.00
56721;BME280;53183;47.412;18.884;2024-02-26T20:18:39;98605.94;;;7.69;100.00
56721;BME280;53183;47.412;18.884;2024-02-26T20:21:07;98606.19;;;7.64;100.00
56721;BME280;53183;47.412;18.884;2024-02-26T20:23:36;98606.94;;;7.66;100.00
56721;BME280;53183;47.412;18.884;2024-02-26T20:26:04;98609.22;;;7.72;100.00
56721;BME280;53183;47.412;18.884;2024-02-26T20:28:32;98614.75;;;7.84;100.00
56721;BME280;53183;47.412;18.884;2024-02-26T20:31:04;98621.06;;;8.11;100.00
56721;BME280;53183;47.412;18.884;2024-02-26T20:33:31;98617.78;;;8.22;100.00
56721;BME280;53183;47.412;18.884;2024-02-26T20:36:03;98625.62;;;8.23;100.00
56721;BME280;53183;47.412;18.884;2024-02-26T20:38:33;98629.87;;;8.26;100.00
56721;BME280;53183;47.412;18.884;2024-02-26T20:41:00;98629.75;;;8.28;100.00
56721;BME280;53183;47.412;18.884;2024-02-26T20:43:27;98622.28;;;8.36;100.00
56721;BME280;53183;47.412;18.884;2024-02-26T20:45:58;98634.84;;;8.47;100.00
56721;BME280;53183;47.412;18.884;2024-02-26T20:48:26;98633.81;;;8.49;100.00
56721;BME280;53183;47.412;18.884;2024-02-26T20:50:53;98634.47;;;8.53;100.00
56721;BME280;53183;47.412;18.884;2024-02-26T20:53:21;98636.47;;;8.63;100.00
56721;BME280;53183;47.412;18.884;2024-02-26T20:55:52;98641.47;;;8.68;100.00
56721;BME280;53183;47.412;18.884;2024-02-26T20:58:23;98639.59;;;8.70;100.00
56721;BME280;53183;47.412;18.884;2024-02-26T21:00:50;98643.91;;;8.71;100.00
56721;BME280;53183;47.412;18.884;2024-02-26T21:03:17;98635.16;;;8.85;100.00
56721;BME280;53183;47.412;18.884;2024-02-26T21:05:45;98638.09;;;8.95;100.00
56721;BME280;53183;47.412;18.884;2024-02-26T21:08:15;98641.50;;;8.97;100.00
56721;BME280;53183;47.412;18.884;2024-02-26T21:11:01;98654.19;;;9.04;100.00
56721;BME280;53183;47.412;18.884;2024-02-26T21:13:31;98659.50;;;9.19;100.00
56721;BME280;53183;47.412;18.884;2024-02-26T21:16:21;98654.59;;;9.27;100.00
56721;BME280;53183;47.412;18.884;2024-02-26T21:18:48;98650.53;;;9.35;100.00
56721;BME280;53183;47.412;18.884;2024-02-26T21:21:17;98651.28;;;9.37;100.00
56721;BME280;53183;47.412;18.884;2024-02-26T21:23:46;98655.50;;;9.40;100.00
56721;BME280;53183;47.412;18.884;2024-02-26T21:26:16;98655.81;;;9.35;100.00
56721;BME280;53183;47.412;18.884;2024-02-26T21:28:44;98656.34;;;9.40;100.00
56721;BME280;53183;47.412;18.884;2024-02-26T21:31:11;98654.38;;;9.44;100.00
56721;BME280;53183;47.412;18.884;2024-02-26T21:33:39;98655.50;;;9.40;100.00
56721;BME280;53183;47.412;18.884;2024-02-26T21:36:07;98661.81;;;9.37;100.00
56721;BME280;53183;47.412;18.884;2024-02-26T21:38:43;98668.50;;;9.43;100.00
56721;BME280;53183;47.412;18.884;2024-02-26T21:41:19;98663.69;;;9.50;100.00
56721;BME280;53183;47.412;18.884;2024-02-26T21:43:46;98661.72;;;9.53;100.00
56721;BME280;53183;47.412;18.884;2024-02-26T21:46:20;98670.66;;;9.51;100.00
56721;BME280;53183;47.412;18.884;2024-02-26T21:48:47;98674.37;;;9.48;100.00
56721;BME280;53183;47.412;18.884;2024-02-26T21:51:14;98674.41;;;9.75;100.00
56721;BME280;53183;47.412;18.884;2024-02-26T21:53:42;98681.50;;;10.02;100.00
56721;BME280;53183;47.412;18.884;2024-02-26T21:56:12;98680.00;;;10.25;100.00
56721;BME280;53183;47.412;18.884;2024-02-26T21:58:39;98677.66;;;10.35;100.00
56721;BME280;53183;47.412;18.884;2024-02-26T22:01:09;98680.72;;;10.41;100.00
56721;BME280;53183;47.412;18.884;2024-02-26T22:03:36;98679.28;;;10.63;100.00
56721;BME280;53183;47.412;18.884;2024-02-26T22:06:04;98671.59;;;10.72;100.00
56721;BME280;53183;47.412;18.884;2024-02-26T22:08:31;98667.81;;;10.76;100.00
56721;BME280;53183;47.412;18.884;2024-02-26T22:11:00;98672.03;;;10.66;100.00
56721;BME280;53183;47.412;18.884;2024-02-26T22:13:29;98680.88;;;10.65;100.00
56721;BME280;53183;47.412;18.884;2024-02-26T22:15:56;98684.50;;;10.64;100.00
56721;BME280;53183;47.412;18.884;2024-02-26T22:18:27;98684.81;;;10.60;100.00
56721;BME280;53183;47.412;18.884;2024-02-26T22:20:56;98691.47;;;10.65;100.00
56721;BME280;53183;47.412;18.884;2024-02-26T22:23:23;98687.00;;;10.66;100.00
56721;BME280;53183;47.412;18.884;2024-02-26T22:25:50;98670.25;;;10.79;100.00
56721;BME280;53183;47.412;18.884;2024-02-26T22:28:17;98674.66;;;10.79;100.00
56721;BME280;53183;47.412;18.884;2024-02-26T22:30:46;98686.81;;;10.69;100.00
56721;BME280;53183;47.412;18.884;2024-02-26T22:33:14;98697.94;;;10.74;100.00
56721;BME280;53183;47.412;18.884;2024-02-26T22:35:41;98686.41;;;10.75;100.00
56721;BME280;53183;47.412;18.884;2024-02-26T22:38:08;98682.72;;;10.77;100.00
56721;BME280;53183;47.412;18.884;2024-02-26T22:40:36;98690.31;;;10.82;100.00
56721;BME280;53183;47.412;18.884;2024-02-26T22:43:03;98702.41;;;10.86;100.00
56721;BME280;53183;47.412;18.884;2024-02-26T22:45:34;98696.78;;;10.91;100.00
56721;BME280;53183;47.412;18.884;2024-02-26T22:48:01;98709.06;;;10.92;100.00
56721;BME280;53183;47.412;18.884;2024-02-26T22:50:28;98713.50;;;10.91;100.00
56721;BME280;53183;47.412;18.884;2024-02-26T22:52:56;98726.91;;;10.88;100.00
56721;BME280;53183;47.412;18.884;2024-02-26T22:55:23;98748.47;;;10.82;100.00
56721;BME280;53183;47.412;18.884;2024-02-26T22:57:51;98776.13;;;10.64;100.00
56721;BME280;53183;47.412;18.884;2024-02-26T23:00:19;98756.31;;;10.84;100.00
56721;BME280;53183;47.412;18.884;2024-02-26T23:02:54;98742.03;;;10.73;100.00
56721;BME280;53183;47.412;18.884;2024-02-26T23:05:23;98756.47;;;10.68;100.00
56721;BME280;53183;47.412;18.884;2024-02-26T23:07:52;98749.78;;;10.62;100.00
56721;BME280;53183;47.412;18.884;2024-02-26T23:10:20;98757.72;;;10.62;100.00
56721;BME280;53183;47.412;18.884;2024-02-26T23:12:48;98739.34;;;10.61;100.00
56721;BME280;53183;47.412;18.884;2024-02-26T23:15:18;98740.28;;;10.60;100.00
56721;BME280;53183;47.412;18.884;2024-02-26T23:17:47;98730.56;;;10.60;100.00
56721;BME280;53183;47.412;18.884;2024-02-26T23:20:23;98725.38;;;10.59;100.00
56721;BME280;53183;47.412;18.884;2024-02-26T23:22:51;98723.88;;;10.54;100.00
56721;BME280;53183;47.412;18.884;2024-02-26T23:25:19;98714.28;;;10.53;100.00
56721;BME280;53183;47.412;18.884;2024-02-26T23:27:47;98712.16;;;10.59;100.00
56721;BME280;53183;47.412;18.884;2024-02-26T23:30:16;98708.78;;;10.56;100.00
56721;BME280;53183;47.412;18.884;2024-02-26T23:32:45;98699.78;;;10.46;100.00